sensor_id;sensor_type;location;lat;lon;timestamp;pressure;altitude;pressure_sealevel;temperature;humidity
29359;BME280;16347;53.232;6.556;2023-03-14T00:01:13;98617.06;;;11.63;62.89
29359;BME280;16347;53.232;6.556;2023-03-14T00:03:42;98605.78;;;11.59;63.30
29359;BME280;16347;53.232;6.556;2023-03-14T00:06:11;98610.44;;;11.52;63.66
29359;BME280;16347;53.232;6.556;2023-03-14T00:08:42;98608.50;;;11.59;63.58
29359;BME280;16347;53.232;6.556;2023-03-14T00:11:12;98598.09;;;11.50;64.09
29359;BME280;16347;53.232;6.556;2023-03-14T00:13:40;98609.03;;;11.43;64.25
29359;BME280;16347;53.232;6.556;2023-03-14T00:16:10;98599.94;;;11.56;64.24
29359;BME280;16347;53.232;6.556;2023-03-14T00:18:40;98606.91;;;11.45;64.49
29359;BME280;16347;53.232;6.556;2023-03-14T00:21:10;98593.09;;;11.47;64.61
29359;BME280;16347;53.232;6.556;2023-03-14T00:23:40;98579.00;;;11.56;64.44
29359;BME280;16347;53.232;6.556;2023-03-14T00:26:10;98590.84;;;11.68;64.06
29359;BME280;16347;53.232;6.556;2023-03-14T00:28:39;98607.63;;;11.65;64.06
29359;BME280;16347;53.232;6.556;2023-03-14T00:31:10;98606.13;;;11.69;64.00
29359;BME280;16347;53.232;6.556;2023-03-14T00:33:42;98605.44;;;11.49;63.98
29359;BME280;16347;53.232;6.556;2023-03-14T00:36:12;98591.03;;;11.42;64.78
29359;BME280;16347;53.232;6.556;2023-03-14T00:38:42;98579.44;;;11.53;64.27
29359;BME280;16347;53.232;6.556;2023-03-14T00:41:12;98582.56;;;11.57;64.55
29359;BME280;16347;53.232;6.556;2023-03-14T00:43:41;98578.41;;;11.54;64.38
29359;BME280;16347;53.232;6.556;2023-03-14T00:46:09;98581.13;;;11.54;64.14
29359;BME280;16347;53.232;6.556;2023-03-14T00:48:37;98583.50;;;11.69;64.04
29359;BME280;16347;53.232;6.556;2023-03-14T00:51:08;98598.00;;;11.31;65.38
29359;BME280;16347;53.232;6.556;2023-03-14T00:53:38;98588.06;;;11.50;65.05
29359;BME280;16347;53.232;6.556;2023-03-14T00:56:09;98581.81;;;11.43;65.17
29359;BME280;16347;53.232;6.556;2023-03-14T00:58:37;98595.38;;;11.50;65.21
29359;BME280;16347;53.232;6.556;2023-03-14T01:01:07;98575.09;;;11.46;65.00
29359;BME280;16347;53.232;6.556;2023-03-14T01:03:36;98574.66;;;11.49;64.83
29359;BME280;16347;53.232;6.556;2023-03-14T01:06:10;98571.88;;;11.55;64.67
29359;BME280;16347;53.232;6.556;2023-03-14T01:08:42;98575.28;;;11.51;65.02
29359;BME280;16347;53.232;6.556;2023-03-14T01:11:13;98605.78;;;11.59;64.56
29359;BME280;16347;53.232;6.556;2023-03-14T01:13:41;98579.06;;;11.50;65.22
29359;BME280;16347;53.232;6.556;2023-03-14T01:16:11;98587.66;;;11.47;65.62
29359;BME280;16347;53.232;6.556;2023-03-14T01:18:41;98599.00;;;11.44;65.77
29359;BME280;16347;53.232;6.556;2023-03-14T01:21:13;98583.06;;;11.47;65.71
29359;BME280;16347;53.232;6.556;2023-03-14T01:23:43;98581.38;;;11.46;65.73
29359;BME280;16347;53.232;6.556;2023-03-14T01:26:13;98576.09;;;11.58;65.51
29359;BME280;16347;53.232;6.556;2023-03-14T01:28:42;98568.22;;;11.43;65.90
29359;BME280;16347;53.232;6.556;2023-03-14T01:31:10;98573.75;;;11.61;65.53
29359;BME280;16347;53.232;6.556;2023-03-14T01:33:39;98568.25;;;11.74;65.02
29359;BME280;16347;53.232;6.556;2023-03-14T01:36:11;98577.47;;;11.67;65.01
29359;BME280;16347;53.232;6.556;2023-03-14T01:38:40;98580.19;;;11.67;65.44
29359;BME280;16347;53.232;6.556;2023-03-14T01:41:14;98579.19;;;11.61;65.75
29359;BME280;16347;53.232;6.556;2023-03-14T01:43:43;98596.22;;;11.50;65.87
29359;BME280;16347;53.232;6.556;2023-03-14T01:46:24;98570.63;;;11.58;66.24
29359;BME280;16347;53.232;6.556;2023-03-14T01:49:07;98573.75;;;11.61;65.95
29359;BME280;16347;53.232;6.556;2023-03-14T01:51:43;98585.94;;;11.52;66.28
29359;BME280;16347;53.232;6.556;2023-03-14T01:54:17;98576.81;;;11.40;66.83
29359;BME280;16347;53.232;6.556;2023-03-14T01:56:52;98575.75;;;11.48;66.39
29359;BME280;16347;53.232;6.556;2023-03-14T01:59:21;98573.97;;;11.60;66.30
29359;BME280;16347;53.232;6.556;2023-03-14T02:01:50;98557.81;;;11.65;66.34
29359;BME280;16347;53.232;6.556;2023-03-14T02:04:19;98575.00;;;11.34;67.25
29359;BME280;16347;53.232;6.556;2023-03-14T02:06:57;98579.97;;;11.37;67.69
29359;BME280;16347;53.232;6.556;2023-03-14T02:09:31;98596.19;;;11.19;68.92
29359;BME280;16347;53.232;6.556;2023-03-14T02:11:59;98594.88;;;11.35;68.53
29359;BME280;16347;53.232;6.556;2023-03-14T02:14:46;98566.38;;;11.37;68.15
29359;BME280;16347;53.232;6.556;2023-03-14T02:17:22;98547.91;;;11.14;69.10
29359;BME280;16347;53.232;6.556;2023-03-14T02:20:25;98552.78;;;11.37;68.90
29359;BME280;16347;53.232;6.556;2023-03-14T02:22:58;98550.16;;;11.24;69.18
29359;BME280;16347;53.232;6.556;2023-03-14T02:25:35;98549.78;;;11.14;69.66
29359;BME280;16347;53.232;6.556;2023-03-14T02:28:10;98545.19;;;11.14;69.11
29359;BME280;16347;53.232;6.556;2023-03-14T02:30:39;98551.34;;;11.35;69.28
29359;BME280;16347;53.232;6.556;2023-03-14T02:33:09;98549.63;;;11.02;69.60
29359;BME280;16347;53.232;6.556;2023-03-14T02:35:41;98535.06;;;11.21;69.38
29359;BME280;16347;53.232;6.556;2023-03-14T02:38:15;98550.44;;;11.41;68.51
29359;BME280;16347;53.232;6.556;2023-03-14T02:40:47;98540.47;;;11.59;67.91
29359;BME280;16347;53.232;6.556;2023-03-14T02:43:16;98550.44;;;11.41;68.36
29359;BME280;16347;53.232;6.556;2023-03-14T02:45:50;98539.19;;;11.37;69.63
29359;BME280;16347;53.232;6.556;2023-03-14T02:48:24;98536.94;;;11.27;70.28
29359;BME280;16347;53.232;6.556;2023-03-14T02:50:56;98539.75;;;11.14;71.39
29359;BME280;16347;53.232;6.556;2023-03-14T02:53:26;98544.22;;;10.96;71.61
29359;BME280;16347;53.232;6.556;2023-03-14T02:55:58;98534.31;;;11.14;71.52
29359;BME280;16347;53.232;6.556;2023-03-14T02:58:30;98536.97;;;10.83;72.29
29359;BME280;16347;53.232;6.556;2023-03-14T03:01:06;98539.94;;;10.75;72.89
29359;BME280;16347;53.232;6.556;2023-03-14T03:03:34;98538.00;;;10.89;72.75
29359;BME280;16347;53.232;6.556;2023-03-14T03:06:03;98530.72;;;10.76;73.43
29359;BME280;16347;53.232;6.556;2023-03-14T03:08:31;98527.19;;;10.75;74.12
29359;BME280;16347;53.232;6.556;2023-03-14T03:11:00;98540.91;;;10.94;74.15
29359;BME280;16347;53.232;6.556;2023-03-14T03:13:32;98537.47;;;10.67;75.23
29359;BME280;16347;53.232;6.556;2023-03-14T03:16:02;98534.78;;;10.60;76.19
29359;BME280;16347;53.232;6.556;2023-03-14T03:18:30;98541.91;;;10.55;76.96
29359;BME280;16347;53.232;6.556;2023-03-14T03:20:59;98537.16;;;10.44;77.83
29359;BME280;16347;53.232;6.556;2023-03-14T03:23:28;98528.50;;;10.60;77.49
29359;BME280;16347;53.232;6.556;2023-03-14T03:25:57;98544.22;;;10.45;78.21
29359;BME280;16347;53.232;6.556;2023-03-14T03:28:25;98534.03;;;10.34;79.33
29359;BME280;16347;53.232;6.556;2023-03-14T03:30:55;98544.47;;;10.37;80.19
29359;BME280;16347;53.232;6.556;2023-03-14T03:33:24;98544.63;;;10.48;79.99
29359;BME280;16347;53.232;6.556;2023-03-14T03:35:52;98536.38;;;10.17;80.80
29359;BME280;16347;53.232;6.556;2023-03-14T03:38:28;98528.41;;;10.28;81.23
29359;BME280;16347;53.232;6.556;2023-03-14T03:41:02;98537.41;;;10.22;81.51
29359;BME280;16347;53.232;6.556;2023-03-14T03:43:30;98529.44;;;10.27;81.19
29359;BME280;16347;53.232;6.556;2023-03-14T03:46:04;98529.63;;;10.39;81.35
29359;BME280;16347;53.232;6.556;2023-03-14T03:48:33;98530.72;;;10.25;81.63
29359;BME280;16347;53.232;6.556;2023-03-14T03:51:04;98539.50;;;10.20;80.94
29359;BME280;16347;53.232;6.556;2023-03-14T03:53:33;98530.72;;;10.25;81.17
29359;BME280;16347;53.232;6.556;2023-03-14T03:56:07;98553.06;;;10.27;80.49
29359;BME280;16347;53.232;6.556;2023-03-14T03:58:35;98534.47;;;10.17;81.21
29359;BME280;16347;53.232;6.556;2023-03-14T04:01:07;98539.47;;;10.34;81.26
29359;BME280;16347;53.232;6.556;2023-03-14T04:03:36;98529.81;;;10.38;80.77
29359;BME280;16347;53.232;6.556;2023-03-14T04:06:08;98549.03;;;10.49;79.92
29359;BME280;16347;53.232;6.556;2023-03-14T04:08:38;98532.50;;;10.57;79.52
29359;BME280;16347;53.232;6.556;2023-03-14T04:11:09;98532.94;;;10.48;79.69
29359;BME280;16347;53.232;6.556;2023-03-14T04:13:59;98529.75;;;10.64;79.07
29359;BME280;16347;53.232;6.556;2023-03-14T04:16:30;98539.59;;;10.58;78.59
29359;BME280;16347;53.232;6.556;2023-03-14T04:19:08;98533.75;;;10.48;79.50
29359;BME280;16347;53.232;6.556;2023-03-14T04:21:36;98539.03;;;10.37;80.10
29359;BME280;16347;53.232;6.556;2023-03-14T04:24:09;98546.41;;;10.16;80.88
29359;BME280;16347;53.232;6.556;2023-03-14T04:26:38;98545.97;;;10.19;80.93
29359;BME280;16347;53.232;6.556;2023-03-14T04:29:07;98530.94;;;10.23;81.21
29359;BME280;16347;53.232;6.556;2023-03-14T04:31:40;98536.78;;;10.20;81.55
29359;BME280;16347;53.232;6.556;2023-03-14T04:34:08;98539.69;;;10.32;81.36
29359;BME280;16347;53.232;6.556;2023-03-14T04:36:42;98534.88;;;10.27;81.07
29359;BME280;16347;53.232;6.556;2023-03-14T04:39:15;98529.41;;;10.47;80.66
29359;BME280;16347;53.232;6.556;2023-03-14T04:41:51;98521.03;;;10.49;80.44
29359;BME280;16347;53.232;6.556;2023-03-14T04:44:20;98520.63;;;10.39;81.35
29359;BME280;16347;53.232;6.556;2023-03-14T04:46:52;98528.19;;;10.30;81.90
29359;BME280;16347;53.232;6.556;2023-03-14T04:49:20;98510.97;;;10.56;81.82
29359;BME280;16347;53.232;6.556;2023-03-14T04:51:49;98513.75;;;10.36;81.35
29359;BME280;16347;53.232;6.556;2023-03-14T04:54:18;98524.00;;;10.27;82.47
29359;BME280;16347;53.232;6.556;2023-03-14T04:56:51;98519.44;;;10.15;83.00
29359;BME280;16347;53.232;6.556;2023-03-14T04:59:19;98517.50;;;10.35;82.59
29359;BME280;16347;53.232;6.556;2023-03-14T05:01:49;98522.94;;;10.42;82.25
29359;BME280;16347;53.232;6.556;2023-03-14T05:04:57;98532.34;;;10.39;82.15
29359;BME280;16347;53.232;6.556;2023-03-14T05:07:42;98511.25;;;10.35;82.08
29359;BME280;16347;53.232;6.556;2023-03-14T05:10:42;98513.16;;;10.34;82.80
29359;BME280;16347;53.232;6.556;2023-03-14T05:13:25;98491.66;;;10.19;83.56
29359;BME280;16347;53.232;6.556;2023-03-14T05:16:12;98516.53;;;10.23;83.32
29359;BME280;16347;53.232;6.556;2023-03-14T05:18:46;98518.56;;;10.27;83.69
29359;BME280;16347;53.232;6.556;2023-03-14T05:21:44;98513.41;;;10.00;84.50
29359;BME280;16347;53.232;6.556;2023-03-14T05:24:27;98527.41;;;10.03;84.65
29359;BME280;16347;53.232;6.556;2023-03-14T05:26:57;98505.25;;;10.06;84.94
29359;BME280;16347;53.232;6.556;2023-03-14T05:29:42;98525.09;;;10.00;84.75
29359;BME280;16347;53.232;6.556;2023-03-14T05:32:24;98513.19;;;10.14;84.28
29359;BME280;16347;53.232;6.556;2023-03-14T05:35:10;98508.81;;;10.07;84.20
29359;BME280;16347;53.232;6.556;2023-03-14T05:38:03;98507.13;;;10.06;84.10
29359;BME280;16347;53.232;6.556;2023-03-14T05:40:44;98507.72;;;10.21;83.93
29359;BME280;16347;53.232;6.556;2023-03-14T05:43:32;98512.75;;;10.17;83.36
29359;BME280;16347;53.232;6.556;2023-03-14T05:46:11;98512.97;;;10.22;83.53
29359;BME280;16347;53.232;6.556;2023-03-14T05:49:02;98520.88;;;10.11;83.55
29359;BME280;16347;53.232;6.556;2023-03-14T05:51:48;98515.09;;;10.14;83.55
29359;BME280;16347;53.232;6.556;2023-03-14T05:54:26;98518.19;;;10.17;83.25
29359;BME280;16347;53.232;6.556;2023-03-14T05:57:04;98524.03;;;10.21;82.88
29359;BME280;16347;53.232;6.556;2023-03-14T05:59:55;98516.53;;;10.16;83.03
29359;BME280;16347;53.232;6.556;2023-03-14T06:02:38;98508.97;;;10.32;82.80
29359;BME280;16347;53.232;6.556;2023-03-14T06:05:17;98515.47;;;10.24;82.74
29359;BME280;16347;53.232;6.556;2023-03-14T06:07:46;98515.47;;;10.17;82.52
29359;BME280;16347;53.232;6.556;2023-03-14T06:10:16;98522.13;;;10.28;82.22
29359;BME280;16347;53.232;6.556;2023-03-14T06:12:44;98525.69;;;10.22;82.51
29359;BME280;16347;53.232;6.556;2023-03-14T06:15:13;98538.00;;;10.11;82.35
29359;BME280;16347;53.232;6.556;2023-03-14T06:17:42;98539.28;;;10.09;82.43
29359;BME280;16347;53.232;6.556;2023-03-14T06:20:12;98545.75;;;10.14;82.31
29359;BME280;16347;53.232;6.556;2023-03-14T06:22:41;98546.81;;;10.00;82.42
29359;BME280;16347;53.232;6.556;2023-03-14T06:25:11;98581.47;;;9.98;82.40
29359;BME280;16347;53.232;6.556;2023-03-14T06:27:40;98618.88;;;9.83;82.31
29359;BME280;16347;53.232;6.556;2023-03-14T06:30:10;98616.53;;;9.60;79.13
29359;BME280;16347;53.232;6.556;2023-03-14T06:32:38;98617.38;;;9.61;77.20
29359;BME280;16347;53.232;6.556;2023-03-14T06:35:10;98640.75;;;9.62;76.35
29359;BME280;16347;53.232;6.556;2023-03-14T06:37:40;98640.16;;;9.66;76.01
29359;BME280;16347;53.232;6.556;2023-03-14T06:40:09;98658.94;;;9.74;75.42
29359;BME280;16347;53.232;6.556;2023-03-14T06:42:52;98668.91;;;9.54;73.99
29359;BME280;16347;53.232;6.556;2023-03-14T06:45:22;98673.06;;;9.50;73.01
29359;BME280;16347;53.232;6.556;2023-03-14T06:47:51;98688.69;;;9.42;72.89
29359;BME280;16347;53.232;6.556;2023-03-14T06:50:24;98694.69;;;9.31;71.79
29359;BME280;16347;53.232;6.556;2023-03-14T06:52:52;98715.69;;;9.09;71.00
29359;BME280;16347;53.232;6.556;2023-03-14T06:55:24;98728.34;;;8.95;71.11
29359;BME280;16347;53.232;6.556;2023-03-14T06:57:54;98753.72;;;8.60;70.35
29359;BME280;16347;53.232;6.556;2023-03-14T07:00:23;98744.19;;;8.43;69.80
29359;BME280;16347;53.232;6.556;2023-03-14T07:02:54;98752.19;;;8.51;69.99
29359;BME280;16347;53.232;6.556;2023-03-14T07:05:35;98773.22;;;8.27;70.25
29359;BME280;16347;53.232;6.556;2023-03-14T07:08:05;98783.72;;;8.16;70.21
29359;BME280;16347;53.232;6.556;2023-03-14T07:10:34;98800.50;;;8.05;70.46
29359;BME280;16347;53.232;6.556;2023-03-14T07:13:03;98824.53;;;8.14;70.41
29359;BME280;16347;53.232;6.556;2023-03-14T07:15:35;98826.31;;;8.07;69.80
29359;BME280;16347;53.232;6.556;2023-03-14T07:18:08;98838.91;;;8.15;69.80
29359;BME280;16347;53.232;6.556;2023-03-14T07:20:36;98845.44;;;8.06;69.38
29359;BME280;16347;53.232;6.556;2023-03-14T07:23:05;98864.09;;;7.80;69.17
29359;BME280;16347;53.232;6.556;2023-03-14T07:25:38;98876.44;;;7.67;68.94
29359;BME280;16347;53.232;6.556;2023-03-14T07:28:09;98890.19;;;7.87;68.69
29359;BME280;16347;53.232;6.556;2023-03-14T07:30:39;98905.88;;;7.77;68.85
29359;BME280;16347;53.232;6.556;2023-03-14T07:33:16;98915.09;;;7.83;68.73
29359;BME280;16347;53.232;6.556;2023-03-14T07:35:45;98914.75;;;7.71;67.90
29359;BME280;16347;53.232;6.556;2023-03-14T07:38:14;98936.56;;;7.84;68.46
29359;BME280;16347;53.232;6.556;2023-03-14T07:40:58;98934.72;;;7.55;67.86
29359;BME280;16347;53.232;6.556;2023-03-14T07:43:30;98945.72;;;7.54;68.14
29359;BME280;16347;53.232;6.556;2023-03-14T07:46:00;98962.50;;;7.35;68.59
29359;BME280;16347;53.232;6.556;2023-03-14T07:48:28;98953.72;;;7.33;68.86
29359;BME280;16347;53.232;6.556;2023-03-14T07:50:57;98970.44;;;7.51;68.62
29359;BME280;16347;53.232;6.556;2023-03-14T07:53:25;98981.41;;;7.49;68.86
29359;BME280;16347;53.232;6.556;2023-03-14T07:55:54;98976.78;;;7.72;68.37
29359;BME280;16347;53.232;6.556;2023-03-14T07:58:22;98997.03;;;7.77;67.98
29359;BME280;16347;53.232;6.556;2023-03-14T08:00:52;99010.38;;;7.93;68.04
29359;BME280;16347;53.232;6.556;2023-03-14T08:03:20;99021.28;;;7.99;67.83
29359;BME280;16347;53.232;6.556;2023-03-14T08:05:49;99010.47;;;7.85;67.88
29359;BME280;16347;53.232;6.556;2023-03-14T08:08:17;99021.03;;;7.94;68.52
29359;BME280;16347;53.232;6.556;2023-03-14T08:10:45;99031.19;;;7.92;68.67
29359;BME280;16347;53.232;6.556;2023-03-14T08:13:14;99039.03;;;8.02;68.36
29359;BME280;16347;53.232;6.556;2023-03-14T08:15:42;99039.47;;;8.20;67.81
29359;BME280;16347;53.232;6.556;2023-03-14T08:18:11;99053.94;;;8.27;68.04
29359;BME280;16347;53.232;6.556;2023-03-14T08:20:39;99064.44;;;8.45;68.29
29359;BME280;16347;53.232;6.556;2023-03-14T08:23:07;99062.56;;;8.45;67.39
29359;BME280;16347;53.232;6.556;2023-03-14T08:25:37;99083.78;;;8.42;67.81
29359;BME280;16347;53.232;6.556;2023-03-14T08:28:05;99092.16;;;8.61;67.13
29359;BME280;16347;53.232;6.556;2023-03-14T08:30:33;99103.28;;;8.52;66.44
29359;BME280;16347;53.232;6.556;2023-03-14T08:33:01;99111.28;;;8.60;66.54
29359;BME280;16347;53.232;6.556;2023-03-14T08:35:31;99103.28;;;8.52;66.17
29359;BME280;16347;53.232;6.556;2023-03-14T08:37:59;99123.34;;;8.57;65.26
29359;BME280;16347;53.232;6.556;2023-03-14T08:40:27;99126.25;;;8.41;65.37
29359;BME280;16347;53.232;6.556;2023-03-14T08:42:55;99129.59;;;8.43;65.09
29359;BME280;16347;53.232;6.556;2023-03-14T08:45:23;99141.22;;;8.52;64.81
29359;BME280;16347;53.232;6.556;2023-03-14T08:47:51;99156.53;;;8.45;64.99
29359;BME280;16347;53.232;6.556;2023-03-14T08:50:20;99153.50;;;8.40;64.99
29359;BME280;16347;53.232;6.556;2023-03-14T08:52:51;99162.59;;;8.32;65.21
29359;BME280;16347;53.232;6.556;2023-03-14T08:55:19;99168.25;;;8.22;65.92
29359;BME280;16347;53.232;6.556;2023-03-14T08:57:47;99177.72;;;8.41;65.70
29359;BME280;16347;53.232;6.556;2023-03-14T09:00:16;99186.69;;;8.56;65.08
29359;BME280;16347;53.232;6.556;2023-03-14T09:02:45;99189.50;;;8.48;64.81
29359;BME280;16347;53.232;6.556;2023-03-14T09:05:13;99196.41;;;8.65;64.87
29359;BME280;16347;53.232;6.556;2023-03-14T09:07:41;99203.13;;;8.84;64.69
29359;BME280;16347;53.232;6.556;2023-03-14T09:10:11;99208.63;;;8.91;63.62
29359;BME280;16347;53.232;6.556;2023-03-14T09:12:39;99217.44;;;8.93;62.42
29359;BME280;16347;53.232;6.556;2023-03-14T09:15:08;99231.81;;;8.93;62.23
29359;BME280;16347;53.232;6.556;2023-03-14T09:17:36;99235.19;;;8.95;61.38
29359;BME280;16347;53.232;6.556;2023-03-14T09:20:05;99251.94;;;8.99;61.00
29359;BME280;16347;53.232;6.556;2023-03-14T09:22:35;99269.22;;;8.98;61.26
29359;BME280;16347;53.232;6.556;2023-03-14T09:25:04;99274.56;;;9.06;60.32
29359;BME280;16347;53.232;6.556;2023-03-14T09:27:34;99282.09;;;9.10;58.79
29359;BME280;16347;53.232;6.556;2023-03-14T09:30:03;99295.97;;;9.15;58.15
29359;BME280;16347;53.232;6.556;2023-03-14T09:32:31;99311.28;;;9.08;57.62
29359;BME280;16347;53.232;6.556;2023-03-14T09:34:59;99328.06;;;8.74;57.32
29359;BME280;16347;53.232;6.556;2023-03-14T09:37:28;99330.03;;;8.43;58.50
29359;BME280;16347;53.232;6.556;2023-03-14T09:39:55;99334.03;;;8.70;58.46
29359;BME280;16347;53.232;6.556;2023-03-14T09:42:26;99350.19;;;8.63;57.75
29359;BME280;16347;53.232;6.556;2023-03-14T09:44:59;99353.09;;;8.76;56.69
29359;BME280;16347;53.232;6.556;2023-03-14T09:47:30;99363.22;;;8.83;55.18
29359;BME280;16347;53.232;6.556;2023-03-14T09:49:59;99362.75;;;8.79;54.44
29359;BME280;16347;53.232;6.556;2023-03-14T09:52:31;99384.34;;;8.87;54.70
29359;BME280;16347;53.232;6.556;2023-03-14T09:55:02;99392.25;;;8.74;54.24
29359;BME280;16347;53.232;6.556;2023-03-14T09:57:33;99398.41;;;8.68;54.37
29359;BME280;16347;53.232;6.556;2023-03-14T10:00:10;99402.59;;;8.56;55.21
29359;BME280;16347;53.232;6.556;2023-03-14T10:02:45;99425.56;;;8.60;55.35
29359;BME280;16347;53.232;6.556;2023-03-14T10:05:19;99430.09;;;8.45;55.07
29359;BME280;16347;53.232;6.556;2023-03-14T10:07:48;99440.63;;;8.62;54.28
29359;BME280;16347;53.232;6.556;2023-03-14T10:10:19;99478.31;;;8.72;54.46
29359;BME280;16347;53.232;6.556;2023-03-14T10:12:54;99462.66;;;8.59;53.32
29359;BME280;16347;53.232;6.556;2023-03-14T10:15:27;99473.22;;;8.46;52.99
29359;BME280;16347;53.232;6.556;2023-03-14T10:17:55;99483.84;;;8.56;52.64
29359;BME280;16347;53.232;6.556;2023-03-14T10:20:30;99494.81;;;8.62;53.05
29359;BME280;16347;53.232;6.556;2023-03-14T10:23:00;99498.00;;;8.66;52.51
29359;BME280;16347;53.232;6.556;2023-03-14T10:25:31;99509.19;;;8.63;51.46
29359;BME280;16347;53.232;6.556;2023-03-14T10:28:00;99509.03;;;8.64;49.70
29359;BME280;16347;53.232;6.556;2023-03-14T10:30:37;99524.97;;;8.59;49.73
29359;BME280;16347;53.232;6.556;2023-03-14T10:33:17;99527.38;;;8.77;48.02
29359;BME280;16347;53.232;6.556;2023-03-14T10:35:52;99539.00;;;8.63;48.23
29359;BME280;16347;53.232;6.556;2023-03-14T10:38:24;99535.84;;;8.51;47.03
29359;BME280;16347;53.232;6.556;2023-03-14T10:40:54;99544.38;;;8.71;47.54
29359;BME280;16347;53.232;6.556;2023-03-14T10:43:26;99563.38;;;8.94;46.67
29359;BME280;16347;53.232;6.556;2023-03-14T10:45:57;99551.28;;;8.73;46.39
29359;BME280;16347;53.232;6.556;2023-03-14T10:48:31;99570.19;;;8.90;46.74
29359;BME280;16347;53.232;6.556;2023-03-14T10:51:06;99583.31;;;8.70;47.08
29359;BME280;16347;53.232;6.556;2023-03-14T10:53:41;99590.28;;;8.72;46.05
29359;BME280;16347;53.232;6.556;2023-03-14T10:56:12;99595.88;;;8.63;45.52
29359;BME280;16347;53.232;6.556;2023-03-14T10:58:42;99600.78;;;8.67;45.48
29359;BME280;16347;53.232;6.556;2023-03-14T11:01:32;99613.06;;;8.86;44.03
29359;BME280;16347;53.232;6.556;2023-03-14T11:04:13;99644.91;;;8.84;44.33
29359;BME280;16347;53.232;6.556;2023-03-14T11:06:44;99646.28;;;8.80;43.01
29359;BME280;16347;53.232;6.556;2023-03-14T11:09:22;99648.16;;;8.80;42.78
29359;BME280;16347;53.232;6.556;2023-03-14T11:11:56;99660.66;;;8.89;42.40
29359;BME280;16347;53.232;6.556;2023-03-14T11:14:33;99661.66;;;8.88;42.46
29359;BME280;16347;53.232;6.556;2023-03-14T11:17:12;99681.50;;;8.80;42.84
29359;BME280;16347;53.232;6.556;2023-03-14T11:19:49;99725.50;;;8.98;41.15
29359;BME280;16347;53.232;6.556;2023-03-14T11:22:24;99694.91;;;8.82;38.95
29359;BME280;16347;53.232;6.556;2023-03-14T11:25:21;99702.81;;;8.99;39.16
29359;BME280;16347;53.232;6.556;2023-03-14T11:28:01;99711.06;;;9.06;40.26
29359;BME280;16347;53.232;6.556;2023-03-14T11:30:36;99713.66;;;8.99;39.61
29359;BME280;16347;53.232;6.556;2023-03-14T11:33:14;99729.28;;;8.89;39.16
29359;BME280;16347;53.232;6.556;2023-03-14T11:35:47;99738.56;;;8.87;39.04
29359;BME280;16347;53.232;6.556;2023-03-14T11:38:29;99746.19;;;8.91;39.65
29359;BME280;16347;53.232;6.556;2023-03-14T11:40:59;99754.88;;;8.79;39.77
29359;BME280;16347;53.232;6.556;2023-03-14T11:43:29;99761.38;;;9.08;39.24
29359;BME280;16347;53.232;6.556;2023-03-14T11:46:03;99779.50;;;9.16;38.32
29359;BME280;16347;53.232;6.556;2023-03-14T11:48:39;99776.66;;;9.09;38.58
29359;BME280;16347;53.232;6.556;2023-03-14T11:51:14;99773.94;;;9.09;40.16
29359;BME280;16347;53.232;6.556;2023-03-14T11:53:55;99792.72;;;9.11;39.01
29359;BME280;16347;53.232;6.556;2023-03-14T11:56:31;99790.00;;;9.11;38.86
29359;BME280;16347;53.232;6.556;2023-03-14T11:59:04;99802.38;;;9.13;38.51
29359;BME280;16347;53.232;6.556;2023-03-14T12:01:44;99798.69;;;8.98;38.64
29359;BME280;16347;53.232;6.556;2023-03-14T12:04:28;99816.31;;;9.02;38.49
29359;BME280;16347;53.232;6.556;2023-03-14T12:07:03;99812.66;;;8.79;39.99
29359;BME280;16347;53.232;6.556;2023-03-14T12:09:35;99816.97;;;9.12;41.13
29359;BME280;16347;53.232;6.556;2023-03-14T12:12:05;99835.47;;;9.01;41.86
29359;BME280;16347;53.232;6.556;2023-03-14T12:14:35;99836.50;;;8.92;42.35
29359;BME280;16347;53.232;6.556;2023-03-14T12:17:05;99860.38;;;9.04;40.85
29359;BME280;16347;53.232;6.556;2023-03-14T12:19:37;99858.34;;;8.98;42.36
29359;BME280;16347;53.232;6.556;2023-03-14T12:22:26;99871.25;;;8.88;42.61
29359;BME280;16347;53.232;6.556;2023-03-14T12:24:58;99914.28;;;8.75;42.38
29359;BME280;16347;53.232;6.556;2023-03-14T12:30:41;99887.19;;;8.51;42.86
29359;BME280;16347;53.232;6.556;2023-03-14T12:41:53;99904.44;;;8.42;45.02
29359;BME280;16347;53.232;6.556;2023-03-14T12:50:33;99923.09;;;8.61;42.81
29359;BME280;16347;53.232;6.556;2023-03-14T12:56:28;99934.94;;;8.60;43.26
29359;BME280;16347;53.232;6.556;2023-03-14T13:01:59;99946.47;;;8.62;40.81
29359;BME280;16347;53.232;6.556;2023-03-14T13:04:31;99945.09;;;8.74;39.03
29359;BME280;16347;53.232;6.556;2023-03-14T13:07:11;99952.75;;;8.79;38.49
29359;BME280;16347;53.232;6.556;2023-03-14T13:12:38;99966.97;;;9.05;38.32
29359;BME280;16347;53.232;6.556;2023-03-14T13:15:22;99971.31;;;9.30;38.13
29359;BME280;16347;53.232;6.556;2023-03-14T13:17:53;99989.31;;;9.31;38.56
29359;BME280;16347;53.232;6.556;2023-03-14T13:20:28;99996.44;;;9.32;38.11
29359;BME280;16347;53.232;6.556;2023-03-14T13:22:57;99994.84;;;9.54;38.61
29359;BME280;16347;53.232;6.556;2023-03-14T13:25:29;100000.31;;;9.46;38.34
29359;BME280;16347;53.232;6.556;2023-03-14T13:28:00;100006.94;;;9.27;37.98
29359;BME280;16347;53.232;6.556;2023-03-14T13:30:38;100014.56;;;9.48;37.57
29359;BME280;16347;53.232;6.556;2023-03-14T13:33:06;100026.09;;;9.50;38.20
29359;BME280;16347;53.232;6.556;2023-03-14T13:35:41;100020.16;;;9.46;36.82
29359;BME280;16347;53.232;6.556;2023-03-14T13:38:16;100041.16;;;9.60;37.48
29359;BME280;16347;53.232;6.556;2023-03-14T13:40:46;100036.25;;;9.56;37.49
29359;BME280;16347;53.232;6.556;2023-03-14T13:43:19;100057.31;;;9.46;37.42
29359;BME280;16347;53.232;6.556;2023-03-14T13:45:49;100057.47;;;9.44;36.95
29359;BME280;16347;53.232;6.556;2023-03-14T13:48:18;100044.41;;;9.32;37.98
29359;BME280;16347;53.232;6.556;2023-03-14T13:50:52;100062.91;;;9.28;38.46
29359;BME280;16347;53.232;6.556;2023-03-14T13:53:22;100047.47;;;9.37;39.06
29359;BME280;16347;53.232;6.556;2023-03-14T13:55:51;100058.31;;;9.45;38.65
29359;BME280;16347;53.232;6.556;2023-03-14T13:58:25;100059.00;;;9.39;38.08
29359;BME280;16347;53.232;6.556;2023-03-14T14:00:59;100087.63;;;8.93;38.29